Time;durP1;ratioP1;P1;durP2;ratioP2;P2;SDS_P1;SDS_P2;PMS_P1;PMS_P2;Temp;Humidity;BMP_temperature;BMP_pressure;BME280_temperature;BME280_humidity;BME280_pressure;Samples;Min_cycle;Max_cycle;Signal;HPM_P1;HPM_P2
2022/01/02 12:31:38;;;;;;;10.13;2.47;;;;;;;12.35;100.00;100906.03;2604651;54;20134;-56
2022/01/02 12:42:28;;;;;;;14.48;3.35;;;;;;;12.23;100.00;100933.19;2608338;54;20058;-51
2022/01/02 12:45:03;;;;;;;5.82;2.70;;;;;;;12.38;100.00;100943.50;2609256;54;20034;-56
2022/01/02 12:47:34;;;;;;;12.70;2.95;;;;;;;12.44;100.00;100937.56;2609378;54;20064;-56
2022/01/02 12:50:03;;;;;;;11.70;3.42;;;;;;;12.32;100.00;100936.00;2611984;46;20157;-53
2022/01/02 12:52:31;;;;;;;14.77;2.80;;;;;;;12.37;100.00;100928.34;2610909;46;20150;-53
2022/01/02 12:54:59;;;;;;;13.65;3.28;;;;;;;12.35;100.00;100935.72;2610868;54;20031;-57
2022/01/02 12:57:27;;;;;;;10.23;3.10;;;;;;;12.36;100.00;100934.72;2611114;47;20034;-52
2022/01/02 12:59:59;;;;;;;14.50;3.53;;;;;;;12.36;100.00;100940.13;2606876;47;20133;-57
2022/01/02 13:02:29;;;;;;;10.25;3.35;;;;;;;12.39;100.00;100953.31;2606378;46;20072;-56
2022/01/02 13:05:05;;;;;;;13.30;3.60;;;;;;;12.35;100.00;100949.22;2604990;54;20031;-57
2022/01/02 13:07:36;;;;;;;10.93;2.88;;;;;;;12.37;100.00;100953.47;2605960;54;20034;-57
2022/01/02 13:10:08;;;;;;;11.07;3.10;;;;;;;12.34;100.00;100955.63;2604953;54;20598;-57
2022/01/02 13:12:37;;;;;;;13.88;3.20;;;;;;;12.33;100.00;100954.75;2607856;54;20034;-53
2022/01/02 13:15:08;;;;;;;13.85;3.00;;;;;;;12.45;100.00;100960.84;2608714;54;20041;-55
2022/01/02 13:17:38;;;;;;;10.75;3.10;;;;;;;12.34;100.00;100961.03;2608344;54;20035;-53
2022/01/02 13:20:12;;;;;;;15.10;2.90;;;;;;;12.40;100.00;100965.84;2609480;39;20163;-53
2022/01/02 13:22:43;;;;;;;15.50;3.10;;;;;;;12.43;100.00;100960.13;2608905;47;20174;-52
2022/01/02 13:25:14;;;;;;;11.00;3.30;;;;;;;12.39;100.00;100953.31;2609114;54;21274;-51
2022/01/02 13:27:52;;;;;;;14.77;3.22;;;;;;;12.30;100.00;100971.25;2609139;54;20138;-55
2022/01/02 13:30:22;;;;;;;10.55;2.28;;;;;;;12.36;100.00;100969.81;2609826;54;20034;-55
2022/01/02 13:32:52;;;;;;;11.85;3.03;;;;;;;12.44;100.00;100968.09;2602932;54;20034;-56
2022/01/02 13:35:24;;;;;;;11.45;3.10;;;;;;;12.52;100.00;100961.13;2609443;54;20507;-52
2022/01/02 13:37:59;;;;;;;9.93;3.05;;;;;;;12.55;100.00;100974.31;2610019;54;20062;-56
2022/01/02 13:40:30;;;;;;;10.55;3.03;;;;;;;12.64;100.00;100975.28;2610468;47;20041;-54
2022/01/02 13:43:00;;;;;;;11.80;3.45;;;;;;;12.56;100.00;100974.16;2610020;54;20038;-49
2022/01/02 13:45:30;;;;;;;11.10;3.22;;;;;;;12.56;100.00;100976.88;2610418;54;20076;-52
2022/01/02 13:48:07;;;;;;;14.57;3.00;;;;;;;12.53;100.00;100977.16;2610439;54;20590;-53
2022/01/02 13:50:41;;;;;;;11.05;2.92;;;;;;;12.79;100.00;100981.91;2609982;54;20053;-55
2022/01/02 13:53:16;;;;;;;14.25;2.83;;;;;;;12.55;100.00;100980.56;2610444;54;20166;-51
2022/01/02 13:55:46;;;;;;;15.07;3.50;;;;;;;12.58;100.00;100991.06;2611035;47;20031;-56
2022/01/02 13:58:21;;;;;;;8.65;2.95;;;;;;;12.68;100.00;100987.50;2610904;54;20590;-54
2022/01/02 14:00:50;;;;;;;12.23;2.75;;;;;;;12.48;100.00;100990.22;2610800;47;20035;-52
2022/01/02 14:03:33;;;;;;;13.57;2.58;;;;;;;12.48;100.00;100978.59;2609011;47;20034;-56
2022/01/02 14:06:08;;;;;;;11.20;2.63;;;;;;;12.38;100.00;100992.09;2609993;54;20034;-55
2022/01/02 14:08:42;;;;;;;10.73;3.00;;;;;;;12.37;100.00;100998.53;2609480;47;20065;-57
2022/01/02 14:11:13;;;;;;;14.68;4.35;;;;;;;12.43;100.00;100995.22;2610294;54;20555;-54
2022/01/02 14:14:09;;;;;;;12.43;3.35;;;;;;;12.45;100.00;100995.94;2610420;47;20129;-52
2022/01/02 14:17:14;;;;;;;8.27;2.58;;;;;;;12.34;100.00;101002.34;2611142;39;20510;-54
2022/01/02 14:19:45;;;;;;;11.68;3.00;;;;;;;12.39;100.00;100997.34;2610399;54;20068;-52
2022/01/02 14:22:19;;;;;;;10.20;2.35;;;;;;;12.32;100.00;101012.41;2610301;54;20062;-54
2022/01/02 14:24:49;;;;;;;9.48;2.30;;;;;;;12.35;100.00;101011.28;2610511;54;20062;-54
2022/01/02 14:27:17;;;;;;;;;;;;;;;12.11;100.00;101015.28;2611929;47;20130;-54
2022/01/02 14:29:46;;;;;;;7.38;1.80;;;;;;;12.06;100.00;100996.00;2610953;54;20062;-52
2022/01/02 14:32:14;;;;;;;10.37;1.90;;;;;;;12.03;100.00;101017.84;2611617;54;20138;-56
2022/01/02 14:34:43;;;;;;;10.30;1.98;;;;;;;11.94;100.00;101014.16;2610772;54;20053;-56
2022/01/02 14:37:11;;;;;;;9.10;2.25;;;;;;;11.97;100.00;101015.69;2610987;54;20078;-54
2022/01/02 14:39:42;;;;;;;8.23;1.85;;;;;;;12.01;100.00;101007.19;2611140;54;20038;-56
2022/01/02 14:42:10;;;;;;;7.93;2.17;;;;;;;12.02;100.00;101016.16;2611271;54;20031;-57
2022/01/02 14:44:39;;;;;;;13.02;2.60;;;;;;;11.97;100.00;101013.00;2610815;54;20744;-56
2022/01/02 14:47:08;;;;;;;10.03;2.37;;;;;;;11.92;100.00;101016.97;2611179;47;20589;-53
2022/01/02 14:49:37;;;;;;;8.82;2.80;;;;;;;11.90;100.00;101018.94;2610987;54;20201;-53
2022/01/02 14:52:06;;;;;;;14.07;2.72;;;;;;;11.92;100.00;101026.88;2610878;47;20030;-56
2022/01/02 14:54:34;;;;;;;11.15;2.55;;;;;;;11.89;100.00;101028.00;2611389;54;20161;-55
2022/01/02 14:57:08;;;;;;;14.93;3.23;;;;;;;11.89;100.00;101014.53;2609533;46;20681;-53
2022/01/02 14:59:36;;;;;;;14.82;3.15;;;;;;;11.84;100.00;101019.50;2611358;54;20065;-57
2022/01/02 15:02:06;;;;;;;12.23;2.58;;;;;;;11.78;100.00;101025.47;2610939;54;20034;-56
2022/01/02 15:04:34;;;;;;;;;;;;;;;11.63;100.00;101007.97;2611250;54;20034;-55
2022/01/02 15:07:02;;;;;;;13.75;3.08;;;;;;;11.58;100.00;101009.22;2611333;39;20422;-56
2022/01/02 15:09:30;;;;;;;12.90;2.42;;;;;;;11.50;100.00;101013.66;2611480;54;20050;-53
2022/01/02 15:11:58;;;;;;;9.50;2.38;;;;;;;11.47;100.00;101011.19;2610447;54;20034;-54
2022/01/02 15:14:29;;;;;;;10.90;2.55;;;;;;;11.42;100.00;101019.69;2609712;54;20053;-55
2022/01/02 15:16:57;;;;;;;9.43;2.53;;;;;;;11.45;100.00;101015.88;2611134;54;20134;-51
2022/01/02 15:19:25;;;;;;;11.90;3.20;;;;;;;11.30;100.00;101032.44;2610460;54;20555;-54
2022/01/02 15:21:55;;;;;;;10.95;3.05;;;;;;;11.24;100.00;101021.38;2604633;39;20526;-53
2022/01/02 15:24:24;;;;;;;12.52;2.97;;;;;;;11.29;100.00;101028.06;2612585;39;20510;-55
2022/01/02 15:26:53;;;;;;;10.55;3.00;;;;;;;11.38;100.00;101019.13;2611790;54;20112;-53
2022/01/02 15:29:21;;;;;;;10.38;2.25;;;;;;;11.27;100.00;101011.16;2611017;54;20041;-54
2022/01/02 15:31:56;;;;;;;9.40;2.40;;;;;;;11.22;100.00;101008.88;2610702;54;20034;-54
2022/01/02 15:34:24;;;;;;;14.65;2.88;;;;;;;11.27;100.00;101003.06;2611387;54;20050;-52
2022/01/02 15:36:53;;;;;;;12.77;2.33;;;;;;;11.28;100.00;101009.28;2609382;54;20031;-54
2022/01/02 15:39:21;;;;;;;12.20;2.80;;;;;;;11.28;100.00;101012.00;2610704;54;20748;-52
2022/01/02 15:41:49;;;;;;;10.07;2.60;;;;;;;11.27;100.00;101010.31;2610595;54;20166;-55
2022/01/02 15:44:17;;;;;;;10.70;2.95;;;;;;;11.16;100.00;100998.66;2611396;54;20054;-54
2022/01/02 15:46:45;;;;;;;11.02;2.58;;;;;;;11.11;100.00;101008.13;2611300;54;20030;-50
2022/01/02 15:49:16;;;;;;;11.68;2.53;;;;;;;11.07;100.00;101002.16;2611468;54;20034;-55
2022/01/02 15:51:45;;;;;;;14.45;2.97;;;;;;;10.93;100.00;101002.53;2610758;54;20109;-51
2022/01/02 15:54:14;;;;;;;12.98;3.85;;;;;;;10.85;100.00;101001.34;2611290;47;20554;-54
2022/01/02 15:56:42;;;;;;;12.15;3.28;;;;;;;10.77;100.00;100998.47;2610756;54;20065;-53
2022/01/02 15:59:11;;;;;;;14.73;3.05;;;;;;;10.77;100.00;101003.84;2607644;54;20053;-53
2022/01/02 16:01:39;;;;;;;14.30;2.87;;;;;;;10.76;100.00;100999.47;2608705;54;20166;-49
2022/01/02 16:04:07;;;;;;;13.32;2.63;;;;;;;10.73;100.00;100993.50;2609694;39;20546;-54
2022/01/02 16:06:38;;;;;;;9.30;2.97;;;;;;;10.67;100.00;100997.56;2610514;54;20034;-55
2022/01/02 16:09:07;;;;;;;11.32;2.28;;;;;;;10.79;100.00;100990.25;2608741;47;20567;-55
2022/01/02 16:11:35;;;;;;;16.90;3.70;;;;;;;10.87;100.00;100987.75;2608115;54;20041;-55
2022/01/02 16:14:05;;;;;;;16.98;3.47;;;;;;;10.87;100.00;101002.06;2610058;54;20035;-56
2022/01/02 16:16:33;;;;;;;14.88;3.13;;;;;;;10.86;100.00;100997.69;2609278;54;20074;-52
2022/01/02 16:19:01;;;;;;;12.98;2.72;;;;;;;10.86;100.00;101003.06;2609378;54;20162;-54
2022/01/02 16:21:29;;;;;;;18.00;3.63;;;;;;;10.94;100.00;101005.09;2610802;54;20161;-51
2022/01/02 16:24:00;;;;;;;15.60;2.92;;;;;;;10.89;100.00;100995.69;2608125;54;20035;-52
2022/01/02 16:26:29;;;;;;;16.33;3.15;;;;;;;11.07;100.00;101001.28;2610737;54;20031;-54
2022/01/02 16:29:00;;;;;;;8.63;2.90;;;;;;;11.03;100.00;100996.19;2603923;47;20035;-52
2022/01/02 16:31:28;;;;;;;10.85;2.90;;;;;;;10.92;100.00;100995.44;2610607;39;20447;-54
2022/01/02 16:33:56;;;;;;;14.50;4.35;;;;;;;10.83;100.00;100992.53;2609355;54;20038;-56
2022/01/02 16:36:24;;;;;;;15.27;3.65;;;;;;;10.83;100.00;100992.53;2608990;54;20034;-56
2022/01/02 16:38:53;;;;;;;14.93;3.47;;;;;;;10.83;100.00;100997.09;2610147;47;20632;-53
2022/01/02 16:41:24;;;;;;;15.68;3.65;;;;;;;10.99;100.00;100993.91;2610016;54;20044;-54
2022/01/02 16:43:53;;;;;;;11.65;3.03;;;;;;;10.92;100.00;100990.03;2609672;54;20069;-55
2022/01/02 16:46:21;;;;;;;16.17;3.72;;;;;;;10.91;100.00;100978.44;2609900;47;20168;-53
2022/01/02 16:48:49;;;;;;;17.85;4.30;;;;;;;10.85;100.00;100985.19;2608986;47;20133;-57
2022/01/02 16:51:18;;;;;;;10.98;3.65;;;;;;;10.83;100.00;100981.78;2610263;54;20590;-56
2022/01/02 16:53:46;;;;;;;13.57;3.88;;;;;;;10.84;100.00;100994.25;2608848;54;20034;-52
2022/01/02 16:56:15;;;;;;;13.02;3.50;;;;;;;10.87;100.00;100987.75;2609479;51;20597;-55
2022/01/02 16:58:45;;;;;;;15.93;3.90;;;;;;;10.87;100.00;100983.22;2609588;39;20505;-56
2022/01/02 17:01:14;;;;;;;23.08;4.10;;;;;;;10.81;100.00;100978.38;2608979;47;21012;-52
2022/01/02 17:03:42;;;;;;;21.67;3.50;;;;;;;10.81;100.00;100973.00;2609424;54;20125;-52
2022/01/02 17:06:10;;;;;;;19.35;3.72;;;;;;;10.70;100.00;100973.06;2605995;54;20125;-58
2022/01/02 17:08:44;;;;;;;18.38;3.88;;;;;;;10.71;100.00;100969.41;2609552;54;20038;-59
2022/01/02 17:11:12;;;;;;;18.88;4.32;;;;;;;10.69;100.00;100974.91;2610411;54;20147;-59
2022/01/02 17:13:50;;;;;;;20.70;3.67;;;;;;;10.69;100.00;100964.16;2611130;47;20123;-59
2022/01/02 17:16:19;;;;;;;16.42;3.20;;;;;;;10.76;100.00;100959.09;2609386;54;20034;-60
2022/01/02 17:18:47;;;;;;;16.07;2.90;;;;;;;10.76;100.00;100956.41;2609854;54;20038;-60
2022/01/02 17:21:16;;;;;;;19.13;3.50;;;;;;;10.80;100.00;100959.66;2610204;39;20573;-59
2022/01/02 17:23:45;;;;;;;12.27;3.03;;;;;;;10.83;100.00;100956.69;2612279;39;20584;-61
2022/01/02 17:26:14;;;;;;;19.38;3.30;;;;;;;10.83;100.00;100959.38;2611525;54;20042;-60
2022/01/02 17:28:42;;;;;;;17.90;3.75;;;;;;;10.87;100.00;100950.91;2603781;54;20042;-59
2022/01/02 17:33:54;;;;;;;15.90;3.60;;;;;;;10.80;100.00;100944.34;2603699;54;20035;-59
2022/01/02 17:36:22;;;;;;;17.58;3.28;;;;;;;10.73;100.00;100931.56;2609975;47;20133;-60
2022/01/02 17:38:50;;;;;;;15.45;3.65;;;;;;;10.68;100.00;100918.53;2610500;54;20173;-59
2022/01/02 17:41:20;;;;;;;13.00;3.17;;;;;;;10.60;100.00;100912.94;2610239;54;20050;-59
2022/01/02 17:48:54;;;;;;;19.35;3.83;;;;;;;10.60;100.00;100902.19;2611176;39;20623;-61
2022/01/02 17:51:22;;;;;;;26.90;4.53;;;;;;;10.53;100.00;100907.28;2609174;39;20686;-59
2022/01/02 17:53:50;;;;;;;18.55;3.33;;;;;;;10.51;100.00;100902.03;2610433;54;20653;-59
2022/01/02 17:56:19;;;;;;;17.33;3.67;;;;;;;10.49;100.00;100908.53;2609462;47;20034;-60
2022/01/02 17:58:47;;;;;;;19.58;3.50;;;;;;;10.50;100.00;100904.84;2610127;54;20037;-60
2022/01/02 18:01:18;;;;;;;19.05;3.40;;;;;;;10.62;100.00;100887.63;2610209;54;20162;-59
2022/01/02 18:03:46;;;;;;;15.27;3.35;;;;;;;10.62;100.00;100889.47;2608572;54;20041;-59
2022/01/02 18:06:17;;;;;;;17.42;3.08;;;;;;;10.61;100.00;100879.69;2610057;54;20720;-59
2022/01/02 18:08:46;;;;;;;14.00;3.20;;;;;;;10.67;100.00;100879.13;2609941;54;20034;-59
2022/01/02 18:11:15;;;;;;;15.80;3.58;;;;;;;10.70;100.00;100868.09;2611303;39;20660;-59
2022/01/02 18:13:43;;;;;;;17.02;2.65;;;;;;;10.72;100.00;100855.34;2609014;54;20038;-60
2022/01/02 18:16:11;;;;;;;15.10;2.72;;;;;;;10.72;100.00;100860.75;2609986;47;20030;-60
2022/01/02 18:21:05;;;;;;;10.65;2.42;;;;;;;10.65;100.00;100838.88;2613067;39;20724;-59
2022/01/02 18:26:19;;;;;;;17.52;3.17;;;;;;;10.61;100.00;100831.22;2609758;39;20432;-59
2022/01/02 18:28:49;;;;;;;12.27;3.17;;;;;;;10.57;100.00;100824.41;2610933;54;20030;-59
2022/01/02 18:31:17;;;;;;;12.30;3.45;;;;;;;10.71;100.00;100826.72;2610404;54;20035;-59
2022/01/02 18:33:45;;;;;;;13.90;3.35;;;;;;;10.77;100.00;100820.78;2608586;54;20038;-61
2022/01/02 18:36:15;;;;;;;16.33;3.70;;;;;;;10.85;100.00;100818.25;2610184;54;20074;-60
2022/01/02 18:38:44;;;;;;;12.98;3.65;;;;;;;10.97;100.00;100807.38;2612124;54;20114;-59
2022/01/02 18:49:00;;;;;;;26.70;15.38;;;;;;;10.98;100.00;100801.84;2608919;54;20041;-59
2022/01/02 18:53:55;;;;;;;18.35;5.00;;;;;;;11.09;100.00;100791.94;2613931;47;20047;-59
2022/01/02 18:56:23;;;;;;;13.88;3.30;;;;;;;11.01;100.00;100795.31;2609536;54;20030;-59
2022/01/02 18:58:52;;;;;;;8.90;2.65;;;;;;;10.97;100.00;100785.84;2609982;54;20114;-60
2022/01/02 19:01:20;;;;;;;35.53;18.92;;;;;;;10.96;100.00;100786.81;2609246;54;20121;-60
2022/01/02 19:03:49;;;;;;;12.63;3.90;;;;;;;10.92;100.00;100771.91;2608793;47;20069;-58
2022/01/02 19:11:36;;;;;;;18.67;4.93;;;;;;;10.79;100.00;100759.59;2611605;54;20049;-59
2022/01/02 19:14:04;;;;;;;12.35;3.40;;;;;;;10.86;100.00;100765.25;2610223;54;20035;-59
2022/01/02 19:19:09;;;;;;;15.20;4.32;;;;;;;10.82;100.00;100770.09;2611756;54;20075;-60
2022/01/02 19:21:42;;;;;;;14.10;4.45;;;;;;;10.76;100.00;100772.47;2610673;54;20045;-59
2022/01/02 19:26:38;;;;;;;16.63;4.22;;;;;;;10.58;100.00;100750.78;2610713;54;20185;-59
2022/01/02 19:31:40;;;;;;;14.20;4.88;;;;;;;10.34;100.00;100738.53;2612660;54;20065;-58
2022/01/02 19:36:51;;;;;;;15.43;3.80;;;;;;;10.22;100.00;100735.06;2612431;54;20057;-60
2022/01/02 19:39:19;;;;;;;14.25;4.18;;;;;;;10.35;100.00;100726.78;2610481;54;20038;-60
2022/01/02 19:41:51;;;;;;;12.88;2.28;;;;;;;10.30;100.00;100729.00;2610057;54;20030;-58
2022/01/02 19:44:19;;;;;;;13.25;3.30;;;;;;;10.15;100.00;100723.16;2609891;39;20460;-59
2022/01/02 19:56:45;;;;;;;8.55;2.58;;;;;;;10.03;100.00;100690.16;2611368;54;20575;-59
2022/01/02 19:59:16;;;;;;;11.07;2.70;;;;;;;10.03;100.00;100681.25;2610253;47;20030;-59
2022/01/02 20:01:44;;;;;;;12.27;2.20;;;;;;;10.07;100.00;100677.25;2609040;54;20038;-60
2022/01/02 20:04:14;;;;;;;11.48;3.83;;;;;;;10.08;100.00;100687.88;2609815;54;20586;-58
2022/01/02 20:11:53;;;;;;;12.35;5.20;;;;;;;10.15;100.00;100674.75;2612488;54;20042;-59
2022/01/02 20:19:21;;;;;;;10.40;5.90;;;;;;;10.16;100.00;100663.84;2611353;54;20046;-60
2022/01/02 20:21:49;;;;;;;8.32;4.18;;;;;;;10.14;100.00;100667.66;2609860;54;20030;-58
2022/01/02 20:24:18;;;;;;;13.20;8.15;;;;;;;10.14;100.00;100663.16;2610084;54;20736;-59
2022/01/02 20:34:26;;;;;;;7.32;3.47;;;;;;;10.22;100.00;100670.53;2608461;54;20042;-58
2022/01/02 20:44:33;;;;;;;10.88;3.53;;;;;;;10.21;100.00;100665.28;2611424;54;20042;-59
2022/01/02 20:47:01;;;;;;;14.43;2.95;;;;;;;10.24;100.00;100671.22;2609605;54;20841;-58
2022/01/02 20:49:32;;;;;;;18.20;6.03;;;;;;;10.36;100.00;100647.78;2607818;54;20034;-58
2022/01/02 20:52:00;;;;;;;12.75;4.45;;;;;;;10.36;100.00;100666.59;2609295;39;20590;-59
2022/01/02 20:59:27;;;;;;;12.45;2.75;;;;;;;10.32;100.00;100655.25;2611571;54;20097;-59
2022/01/02 21:01:55;;;;;;;16.52;3.95;;;;;;;10.39;100.00;100654.72;2608642;54;20655;-59
2022/01/02 21:04:24;;;;;;;15.10;3.97;;;;;;;10.43;100.00;100653.47;2603649;54;20177;-59
2022/01/02 21:14:25;;;;;;;15.85;3.20;;;;;;;10.44;100.00;100685.59;2610745;54;20042;-59
2022/01/02 21:16:53;;;;;;;16.88;3.90;;;;;;;10.33;100.00;100689.28;2610077;54;20030;-59
2022/01/02 21:49:27;;;;;;;8.50;2.10;;;;;;;10.24;100.00;100743.84;2607726;54;20327;-59
2022/01/02 21:59:39;;;;;;;16.40;2.53;;;;;;;10.27;100.00;100769.63;2608343;54;20034;-59
2022/01/02 22:02:11;;;;;;;14.02;2.85;;;;;;;10.23;100.00;100773.56;2607903;47;20055;-59
2022/01/02 22:12:14;;;;;;;11.30;2.25;;;;;;;10.17;100.00;100796.47;2611048;54;20035;-60
2022/01/02 22:14:42;;;;;;;11.57;2.88;;;;;;;10.17;100.00;100800.03;2609628;47;20343;-59
2022/01/02 22:17:12;;;;;;;15.93;2.95;;;;;;;10.21;100.00;100808.69;2608163;54;20066;-59
2022/01/02 22:19:40;;;;;;;14.70;2.78;;;;;;;10.16;100.00;100813.63;2609837;54;20031;-59
2022/01/02 22:22:09;;;;;;;17.90;2.85;;;;;;;10.12;100.00;100826.47;2611179;47;20122;-60
2022/01/02 22:24:37;;;;;;;11.02;2.38;;;;;;;10.20;100.00;100836.56;2609878;54;20171;-58
2022/01/02 22:27:07;;;;;;;14.50;3.60;;;;;;;10.27;100.00;100839.56;2609569;54;20053;-60
2022/01/02 22:32:18;;;;;;;25.08;3.40;;;;;;;10.14;100.00;100840.66;2609511;54;20062;-59
2022/01/02 22:34:46;;;;;;;18.05;3.10;;;;;;;10.05;100.00;100844.13;2609976;47;20058;-59
2022/01/02 22:37:17;;;;;;;15.02;2.92;;;;;;;10.08;100.00;100846.53;2610362;39;20458;-59
2022/01/02 22:39:50;;;;;;;17.10;3.38;;;;;;;10.04;100.00;100839.75;2612640;54;20034;31
2022/01/02 22:44:54;;;;;;;15.98;3.55;;;;;;;10.11;100.00;100845.44;2612156;54;20054;-59
2022/01/02 23:06:05;;;;;;;11.90;3.03;;;;;;;10.05;100.00;100872.88;2613923;39;20093;-59
2022/01/02 23:11:26;;;;;;;15.73;3.13;;;;;;;9.91;100.00;100888.34;2610542;39;20521;-58
2022/01/02 23:22:12;;;;;;;16.38;3.13;;;;;;;9.82;100.00;100876.53;2608119;39;20403;-59
2022/01/02 23:29:52;;;;;;;24.45;3.30;;;;;;;9.70;100.00;100885.66;2611487;54;20034;-60
2022/01/02 23:32:21;;;;;;;15.63;2.63;;;;;;;9.74;100.00;100879.00;2609247;47;20598;-58
2022/01/02 23:34:50;;;;;;;13.40;3.30;;;;;;;9.80;100.00;100881.22;2609720;54;20035;-58
2022/01/02 23:39:48;;;;;;;14.20;3.10;;;;;;;9.95;100.00;100883.53;2611957;54;20042;-59
2022/01/02 23:42:16;;;;;;;13.43;3.17;;;;;;;9.91;100.00;100887.47;2608054;54;20122;-59
2022/01/02 23:47:25;;;;;;;17.48;3.47;;;;;;;9.94;100.00;100884.56;2609758;54;20041;-60
2022/01/02 23:50:00;;;;;;;15.23;2.78;;;;;;;9.95;100.00;100888.91;2608360;39;20434;-59
2022/01/02 23:55:07;;;;;;;6.72;2.15;;;;;;;9.91;100.00;100882.97;2611091;54;20038;-59
2022/01/02 23:57:36;;;;;;;13.90;2.80;;;;;;;9.97;100.00;100884.28;2607379;54;20178;-59
